Time;durP1;ratioP1;P1;durP2;ratioP2;P2;SDS_P1;SDS_P2;PMS_P1;PMS_P2;Temp;Humidity;BMP_temperature;BMP_pressure;BME280_temperature;BME280_humidity;BME280_pressure;Samples;Min_cycle;Max_cycle;Signal;HPM_P1;HPM_P2
2021/05/22 00:01:32;;;;;;;1.63;1.53;;;;;;;6.51;80.11;95685.56;1792028;80;21028;-61
2021/05/22 00:03:59;;;;;;;2.93;1.53;;;;;;;6.53;79.88;95671.13;1792040;80;21056;-61
2021/05/22 00:06:25;;;;;;;2.13;1.77;;;;;;;6.49;79.48;95664.58;1792052;80;21123;-61
2021/05/22 00:08:52;;;;;;;3.70;2.10;;;;;;;6.47;80.23;95663.70;1791870;80;21035;-61
2021/05/22 00:11:19;;;;;;;4.20;2.13;;;;;;;6.43;80.18;95663.74;1792060;80;21036;-61
2021/05/22 00:13:45;;;;;;;7.10;2.33;;;;;;;6.48;79.80;95672.47;1792056;79;21052;-61
2021/05/22 00:16:12;;;;;;;2.53;1.97;;;;;;;6.53;80.24;95678.58;1792110;80;21067;-61
2021/05/22 00:18:38;;;;;;;1.97;1.80;;;;;;;6.56;79.89;95684.25;1792116;80;21592;-61
2021/05/22 00:21:06;;;;;;;4.77;3.27;;;;;;;6.56;79.94;95688.19;1792233;80;21064;-61
2021/05/22 00:23:32;;;;;;;2.87;2.37;;;;;;;6.61;79.34;95686.42;1792013;80;21111;-61
2021/05/22 00:25:59;;;;;;;5.27;2.53;;;;;;;6.57;78.78;95689.92;1791501;80;21044;-62
2021/05/22 00:28:25;;;;;;;3.40;2.20;;;;;;;6.61;78.70;95695.60;1789386;80;21083;-61
2021/05/22 00:30:52;;;;;;;2.30;2.10;;;;;;;6.66;78.76;95688.16;1789647;80;21155;-61
2021/05/22 00:33:18;;;;;;;2.20;2.00;;;;;;;6.62;78.34;95688.16;1789726;80;21561;-61
2021/05/22 00:35:45;;;;;;;3.53;1.70;;;;;;;6.63;78.53;95676.38;1789776;80;21089;-61
2021/05/22 00:38:12;;;;;;;2.90;1.90;;;;;;;6.61;78.64;95672.01;1789556;80;21530;-61
2021/05/22 00:40:38;;;;;;;4.13;1.80;;;;;;;6.57;78.52;95665.88;1789710;80;21040;-61
2021/05/22 00:43:05;;;;;;;10.87;4.73;;;;;;;6.48;79.70;95652.81;1789720;80;21624;-61
2021/05/22 00:45:33;;;;;;;3.00;2.20;;;;;;;6.41;79.08;95668.97;1789584;80;21048;-61
2021/05/22 00:48:00;;;;;;;5.60;3.23;;;;;;;6.38;79.51;95656.33;1790131;80;21036;-61
2021/05/22 00:50:33;;;;;;;4.63;3.23;;;;;;;6.26;79.91;95658.06;1789621;80;21055;-61
2021/05/22 00:53:03;;;;;;;7.67;2.60;;;;;;;6.19;79.85;95651.52;1789435;80;21033;-61
2021/05/22 00:55:30;;;;;;;4.83;3.03;;;;;;;6.27;79.69;95645.83;1789709;80;21067;-61
2021/05/22 00:57:57;;;;;;;3.53;2.70;;;;;;;6.33;80.25;95639.73;1789613;80;21032;-61
2021/05/22 01:00:50;;;;;;;4.47;2.33;;;;;;;6.33;80.14;95652.39;1789834;80;21080;-61
2021/05/22 01:03:40;;;;;;;2.17;1.77;;;;;;;6.37;80.01;95642.77;1789992;80;21048;-61
2021/05/22 01:06:27;;;;;;;3.40;2.20;;;;;;;6.38;80.42;95640.16;1789774;80;21818;-61
2021/05/22 01:09:07;;;;;;;4.80;2.27;;;;;;;6.44;80.47;95645.38;1789368;80;21554;-61
2021/05/22 01:11:41;;;;;;;2.87;2.33;;;;;;;6.37;80.36;95652.80;1789353;80;21581;-61
2021/05/22 01:14:13;;;;;;;4.57;2.03;;;;;;;6.44;80.35;95657.17;1789346;80;21144;-61
2021/05/22 01:16:42;;;;;;;2.70;2.00;;;;;;;6.51;80.24;95650.17;1786648;80;21049;-62
2021/05/22 01:19:13;;;;;;;2.67;2.00;;;;;;;6.55;80.08;95652.34;1789618;80;21080;-61
2021/05/22 01:21:40;;;;;;;3.17;1.73;;;;;;;6.46;80.54;95647.56;1787471;80;21541;-61
2021/05/22 01:24:13;;;;;;;3.07;1.67;;;;;;;6.47;80.34;95633.56;1789482;80;21532;-61
2021/05/22 01:26:41;;;;;;;2.80;1.50;;;;;;;6.49;79.72;95638.81;1789905;80;21113;-62
2021/05/22 01:29:09;;;;;;;6.20;1.77;;;;;;;6.46;79.66;95630.52;1763533;80;21051;-61
2021/05/22 01:31:36;;;;;;;2.70;1.50;;;;;;;6.56;80.02;95634.45;1792329;80;21091;-61
2021/05/22 01:34:03;;;;;;;3.73;1.67;;;;;;;6.59;79.87;95622.19;1791880;80;21032;-61
2021/05/22 01:36:30;;;;;;;1.97;1.70;;;;;;;6.52;80.16;95626.14;1792064;80;21070;-61
2021/05/22 01:38:56;;;;;;;7.00;2.20;;;;;;;6.47;80.53;95619.59;1792038;79;21032;-61
2021/05/22 01:41:23;;;;;;;3.70;2.20;;;;;;;6.55;80.12;95622.19;1792107;79;21577;-61
2021/05/22 01:43:52;;;;;;;5.17;2.27;;;;;;;6.58;79.67;95623.52;1792155;79;21557;-61
2021/05/22 01:46:21;;;;;;;2.00;1.80;;;;;;;6.58;79.60;95627.45;1791986;80;21146;-61
2021/05/22 01:48:49;;;;;;;3.43;2.10;;;;;;;6.52;79.96;95627.01;1792171;80;21056;-61
2021/05/22 01:51:20;;;;;;;5.60;1.73;;;;;;;6.53;80.20;95623.94;1792275;80;21151;-61
2021/05/22 01:54:07;;;;;;;4.57;1.60;;;;;;;6.50;79.51;95617.86;1792036;79;21131;-61
2021/05/22 01:56:36;;;;;;;4.87;2.00;;;;;;;6.49;79.67;95612.61;1792276;80;21020;-61
2021/05/22 01:59:03;;;;;;;2.87;1.73;;;;;;;6.44;79.74;95609.98;1792472;80;21059;-61
2021/05/22 02:01:31;;;;;;;3.50;2.00;;;;;;;6.38;80.20;95610.02;1792054;80;21032;-61
2021/05/22 02:04:03;;;;;;;2.93;1.77;;;;;;;6.39;79.99;95606.95;1792175;79;21065;-61
2021/05/22 02:06:35;;;;;;;3.63;2.13;;;;;;;6.43;79.52;95610.87;1792335;80;21028;-61
2021/05/22 02:09:05;;;;;;;3.53;1.90;;;;;;;6.45;79.91;95606.52;1791523;80;21075;-61
2021/05/22 02:11:38;;;;;;;2.57;2.23;;;;;;;6.43;80.45;95608.26;1792138;80;21136;-61
2021/05/22 02:14:07;;;;;;;4.00;2.20;;;;;;;6.39;80.32;95608.27;1791809;80;21044;-61
2021/05/22 02:16:50;;;;;;;2.30;1.73;;;;;;;6.33;80.52;95612.22;1792075;80;21111;-61
2021/05/22 02:19:19;;;;;;;4.53;1.70;;;;;;;6.27;81.16;95618.32;1792141;80;21609;-61
2021/05/22 02:21:47;;;;;;;1.50;1.40;;;;;;;6.25;82.02;95620.96;1791981;79;21025;-61
2021/05/22 02:24:18;;;;;;;1.97;1.47;;;;;;;6.22;82.00;95619.66;1791986;80;21545;-61
2021/05/22 02:26:45;;;;;;;2.97;1.77;;;;;;;6.16;81.83;95611.80;1792104;79;21107;-61
2021/05/22 02:29:20;;;;;;;2.90;2.20;;;;;;;6.13;82.11;95616.17;1786591;80;21080;-61
2021/05/22 02:31:49;;;;;;;3.23;2.10;;;;;;;6.17;81.52;95624.45;1786549;80;21637;-61
2021/05/22 02:34:29;;;;;;;6.50;1.87;;;;;;;6.19;81.41;95620.95;1786590;80;21028;-61
2021/05/22 02:36:58;;;;;;;1.90;1.70;;;;;;;6.20;82.74;95625.75;1786382;80;21062;-61
2021/05/22 02:39:26;;;;;;;5.67;1.97;;;;;;;6.26;82.02;95627.94;1786416;80;21128;-62
2021/05/22 02:41:56;;;;;;;3.93;1.73;;;;;;;6.27;82.19;95620.53;1786565;80;21593;-61
2021/05/22 02:44:26;;;;;;;2.97;2.00;;;;;;;6.37;81.59;95620.49;1786617;80;21008;-61
2021/05/22 02:46:55;;;;;;;6.27;1.60;;;;;;;6.38;81.51;95621.81;1786556;80;21028;-61
2021/05/22 02:49:28;;;;;;;2.83;1.50;;;;;;;6.42;80.96;95618.28;1786521;80;21576;-62
2021/05/22 02:51:59;;;;;;;2.13;1.60;;;;;;;6.47;81.16;95617.84;1786592;80;21549;-61
2021/05/22 02:54:28;;;;;;;1.53;1.43;;;;;;;6.46;81.64;95621.34;1786359;80;21557;-61
2021/05/22 02:56:57;;;;;;;3.80;1.80;;;;;;;6.53;81.29;95614.77;1786563;80;21004;-61
2021/05/22 02:59:26;;;;;;;2.67;1.57;;;;;;;6.60;81.05;95626.98;1786862;80;21013;-61
2021/05/22 03:01:54;;;;;;;4.50;1.77;;;;;;;6.64;80.81;95622.18;1786447;80;21037;-61
2021/05/22 03:04:21;;;;;;;3.63;1.90;;;;;;;6.72;81.03;95626.95;1786487;80;21159;-61
2021/05/22 03:06:48;;;;;;;2.10;1.60;;;;;;;6.72;80.80;95616.47;1786642;80;21506;-61
2021/05/22 03:09:15;;;;;;;3.10;1.87;;;;;;;6.84;80.65;95620.80;1786519;80;21116;-61
2021/05/22 03:11:41;;;;;;;3.47;1.80;;;;;;;6.96;80.52;95629.94;1786380;80;21518;-61
2021/05/22 03:14:08;;;;;;;2.53;1.70;;;;;;;6.99;80.44;95640.86;1786685;80;21055;-62
2021/05/22 03:16:34;;;;;;;3.73;2.20;;;;;;;7.01;80.22;95642.60;1786562;80;21075;-61
2021/05/22 03:19:01;;;;;;;3.33;1.50;;;;;;;6.93;79.96;95644.39;1786555;80;21028;-61
2021/05/22 03:21:27;;;;;;;4.80;1.77;;;;;;;6.90;80.42;95647.00;1786518;80;21518;-61
2021/05/22 03:23:54;;;;;;;2.27;1.57;;;;;;;6.95;80.00;95642.61;1786508;80;21148;-61
2021/05/22 03:26:21;;;;;;;2.63;1.50;;;;;;;7.06;79.87;95647.39;1786356;80;21055;-61
2021/05/22 03:28:47;;;;;;;5.33;1.50;;;;;;;7.05;80.01;95641.69;1786471;80;21107;-61
2021/05/22 03:31:14;;;;;;;3.50;1.70;;;;;;;7.08;79.53;95647.36;1786399;80;21048;-61
2021/05/22 03:33:41;;;;;;;2.90;1.20;;;;;;;7.08;80.07;95635.14;1786482;80;21573;-62
2021/05/22 03:36:08;;;;;;;1.93;1.47;;;;;;;7.06;80.33;95634.72;1786686;80;21036;-61
2021/05/22 03:38:34;;;;;;;2.40;1.23;;;;;;;7.03;80.35;95630.77;1786302;80;21191;-62
2021/05/22 03:41:02;;;;;;;2.73;1.57;;;;;;;7.05;81.35;95640.83;1786545;80;21004;-62
2021/05/22 03:43:28;;;;;;;1.80;1.53;;;;;;;7.06;81.15;95646.08;1786506;80;21557;-61
2021/05/22 03:45:55;;;;;;;2.03;1.47;;;;;;;7.04;81.14;95644.34;1786559;80;21032;-61
2021/05/22 03:48:21;;;;;;;2.47;1.70;;;;;;;7.07;81.54;95648.25;1786501;80;21542;-61
2021/05/22 03:50:48;;;;;;;3.27;1.60;;;;;;;7.13;81.49;95648.22;1786376;80;21060;-61
2021/05/22 03:53:15;;;;;;;3.53;1.33;;;;;;;7.15;81.23;95640.77;1786397;80;21067;-61
2021/05/22 03:55:42;;;;;;;2.77;1.70;;;;;;;7.16;81.23;95642.98;1756109;80;21023;-61
2021/05/22 03:58:08;;;;;;;2.00;1.80;;;;;;;7.28;81.14;95647.27;1786619;80;21505;-62
2021/05/22 04:00:36;;;;;;;2.23;1.70;;;;;;;7.40;81.05;95645.90;1786692;80;21036;-62
2021/05/22 04:03:06;;;;;;;2.40;2.20;;;;;;;7.49;81.49;95651.11;1786609;80;21648;-62
2021/05/22 04:05:34;;;;;;;2.40;2.20;;;;;;;7.62;81.17;95641.41;1786609;80;21016;-62
2021/05/22 04:08:03;;;;;;;4.93;3.47;;;;;;;7.67;80.63;95636.13;1786599;80;21128;-62
2021/05/22 04:10:30;;;;;;;18.70;10.57;;;;;;;7.77;80.06;95632.11;1786104;80;20993;-61
2021/05/22 04:12:57;;;;;;;21.80;13.20;;;;;;;7.94;79.49;95624.55;1786623;80;21522;-62
2021/05/22 04:15:23;;;;;;;15.67;9.50;;;;;;;8.12;79.64;95624.39;1786695;80;21027;-61
2021/05/22 04:17:50;;;;;;;8.10;5.20;;;;;;;8.37;78.66;95620.23;1786775;80;21120;-62
2021/05/22 04:20:16;;;;;;;4.73;3.30;;;;;;;8.60;77.93;95622.22;1786728;80;21016;-61
2021/05/22 04:22:43;;;;;;;3.43;2.60;;;;;;;8.75;76.63;95623.81;1786718;80;21041;-62
2021/05/22 04:25:12;;;;;;;4.17;2.30;;;;;;;8.91;75.43;95621.00;1786458;80;21044;-62
2021/05/22 04:27:38;;;;;;;3.83;2.60;;;;;;;9.07;76.06;95619.91;1786952;80;21033;-62
2021/05/22 04:30:07;;;;;;;4.97;2.20;;;;;;;9.16;75.41;95619.81;1792130;80;21564;-62
2021/05/22 04:32:34;;;;;;;3.60;2.00;;;;;;;9.26;74.45;95623.20;1792112;79;21079;-62
2021/05/22 04:35:01;;;;;;;2.83;2.00;;;;;;;9.29;73.92;95624.02;1792102;80;21063;-62
2021/05/22 04:37:28;;;;;;;4.93;2.40;;;;;;;9.31;72.75;95634.09;1792298;79;21044;-62
2021/05/22 04:39:54;;;;;;;4.47;2.20;;;;;;;9.37;72.40;95636.22;1792126;80;21035;-62
2021/05/22 04:42:21;;;;;;;6.07;2.63;;;;;;;9.53;72.66;95633.36;1791992;80;21155;-61
2021/05/22 04:44:48;;;;;;;3.83;2.70;;;;;;;9.73;72.49;95647.58;1792243;80;21036;-62
2021/05/22 04:47:14;;;;;;;4.40;2.93;;;;;;;9.77;73.10;95644.44;1792321;80;21124;-62
2021/05/22 04:49:41;;;;;;;4.63;2.87;;;;;;;9.91;74.19;95638.52;1792141;80;21546;-61
2021/05/22 04:52:08;;;;;;;2.37;2.17;;;;;;;10.05;73.68;95637.42;1792181;79;21040;-62
2021/05/22 04:54:35;;;;;;;2.53;2.10;;;;;;;10.16;73.31;95637.69;1791894;80;21526;-61
2021/05/22 04:57:01;;;;;;;5.07;1.80;;;;;;;10.28;72.56;95636.66;1792216;80;21115;-62
2021/05/22 04:59:28;;;;;;;1.87;1.57;;;;;;;10.41;72.47;95633.36;1792067;79;21052;-62
2021/05/22 05:01:54;;;;;;;3.63;1.67;;;;;;;10.53;71.28;95633.16;1792193;80;21100;-61
2021/05/22 05:04:21;;;;;;;3.63;2.03;;;;;;;10.59;71.01;95641.39;1792288;80;21044;-62
2021/05/22 05:06:48;;;;;;;1.93;1.73;;;;;;;10.65;70.34;95633.81;1792129;80;21147;-62
2021/05/22 05:09:14;;;;;;;2.37;1.80;;;;;;;10.74;71.13;95638.48;1792067;80;21048;-61
2021/05/22 05:11:41;;;;;;;2.73;1.80;;;;;;;10.81;70.72;95640.56;1791955;80;21628;-62
2021/05/22 05:14:08;;;;;;;3.40;1.50;;;;;;;10.92;70.86;95635.07;1792182;79;21032;-62
2021/05/22 05:16:34;;;;;;;3.00;1.80;;;;;;;11.00;69.66;95643.70;1792022;80;21096;-63
2021/05/22 05:19:01;;;;;;;2.57;1.90;;;;;;;11.06;70.15;95642.25;1792178;80;21031;-61
2021/05/22 05:21:27;;;;;;;2.40;1.80;;;;;;;11.16;69.92;95646.48;1792264;80;21036;-62
2021/05/22 05:23:54;;;;;;;2.33;2.00;;;;;;;11.29;70.50;95651.06;1791955;79;21293;-64
2021/05/22 05:26:20;;;;;;;1.87;1.50;;;;;;;11.39;69.84;95653.03;1792285;80;21167;-61
2021/05/22 05:28:47;;;;;;;4.73;2.03;;;;;;;11.47;69.07;95646.70;1792021;80;21040;-62
2021/05/22 05:31:14;;;;;;;2.77;1.83;;;;;;;11.55;69.59;95653.14;1792213;80;21123;-62
2021/05/22 05:33:40;;;;;;;2.60;1.80;;;;;;;11.62;67.92;95660.05;1792241;79;21565;-61
2021/05/22 05:36:07;;;;;;;4.23;1.60;;;;;;;11.64;68.85;95654.28;1792247;80;21641;-62
2021/05/22 05:38:34;;;;;;;2.30;1.60;;;;;;;11.69;68.76;95654.16;1792002;80;21069;-62
2021/05/22 05:41:01;;;;;;;2.10;1.90;;;;;;;11.74;68.26;95650.09;1792016;79;21056;-61
2021/05/22 05:43:27;;;;;;;4.80;1.80;;;;;;;11.80;68.71;95651.30;1792151;80;21115;-61
2021/05/22 05:45:54;;;;;;;3.43;1.80;;;;;;;11.87;68.55;95655.13;1763596;80;21068;-61
2021/05/22 05:48:21;;;;;;;2.43;2.23;;;;;;;11.98;67.73;95651.36;1792295;80;21079;-62
2021/05/22 05:50:48;;;;;;;2.30;2.10;;;;;;;12.09;68.84;95641.38;1792298;80;21137;-61
2021/05/22 05:53:14;;;;;;;2.63;1.70;;;;;;;12.24;68.79;95644.98;1792059;80;21599;-62
2021/05/22 05:55:41;;;;;;;2.83;1.90;;;;;;;12.36;68.62;95639.85;1792025;80;21052;-62
2021/05/22 05:58:08;;;;;;;2.47;2.00;;;;;;;12.45;66.35;95633.48;1792227;80;21148;-62
2021/05/22 06:00:35;;;;;;;3.60;1.80;;;;;;;12.62;65.97;95635.67;1792205;80;21052;-62
2021/05/22 06:03:01;;;;;;;3.43;2.00;;;;;;;12.76;65.75;95637.52;1792116;80;21141;-62
2021/05/22 06:05:28;;;;;;;6.17;2.23;;;;;;;12.85;62.59;95633.31;1792103;79;21656;-62
2021/05/22 06:07:55;;;;;;;1.93;1.73;;;;;;;12.97;63.10;95636.92;1792010;79;21029;-62
2021/05/22 06:10:21;;;;;;;4.43;1.73;;;;;;;13.06;62.76;95644.23;1791969;80;21139;-62
2021/05/22 06:12:48;;;;;;;2.53;1.30;;;;;;;13.15;60.82;95645.27;1792055;80;21071;-62
2021/05/22 06:17:43;;;;;;;1.77;1.30;;;;;;;13.31;62.38;95641.33;1792034;80;21025;-62
2021/05/22 06:20:12;;;;;;;1.20;1.10;;;;;;;13.36;60.95;95643.39;1792063;80;21032;-62
2021/05/22 06:22:40;;;;;;;3.63;1.30;;;;;;;13.37;59.52;95646.44;1792136;80;21564;-61
2021/05/22 06:25:09;;;;;;;1.93;1.27;;;;;;;13.38;59.19;95644.66;1791803;80;21612;-62
2021/05/22 06:27:36;;;;;;;1.30;1.10;;;;;;;13.41;59.69;95644.13;1792183;79;21016;-62
2021/05/22 06:30:06;;;;;;;1.87;1.20;;;;;;;13.51;60.22;95645.20;1792186;80;21128;-62
2021/05/22 06:32:33;;;;;;;2.93;1.40;;;;;;;13.63;60.82;95644.38;1792159;80;21529;-62
2021/05/22 06:35:00;;;;;;;4.23;1.90;;;;;;;13.75;60.74;95647.56;1791995;80;21044;-62
2021/05/22 06:37:27;;;;;;;2.17;1.63;;;;;;;13.87;61.13;95648.98;1792147;80;21036;-62
2021/05/22 06:39:54;;;;;;;1.73;1.53;;;;;;;13.99;61.47;95641.98;1791763;80;21055;-62
2021/05/22 06:42:21;;;;;;;3.13;1.87;;;;;;;14.08;60.91;95640.34;1792063;80;21048;-61
2021/05/22 06:45:01;;;;;;;3.60;2.17;;;;;;;14.14;61.13;95639.30;1792213;79;21072;-62
2021/05/22 06:47:22;;;;;;;2.13;1.90;;;;;;;14.14;60.59;95638.84;1791348;80;21000;-62
2021/05/22 06:49:49;;;;;;;2.67;1.97;;;;;;;14.18;59.74;95639.13;1791812;80;21077;-61
2021/05/22 06:52:16;;;;;;;4.73;2.47;;;;;;;14.26;60.66;95636.23;1792084;80;21063;-62
2021/05/22 06:54:42;;;;;;;7.33;2.37;;;;;;;14.31;59.37;95640.06;1792126;80;21035;-61
2021/05/22 06:57:09;;;;;;;7.17;2.97;;;;;;;14.32;57.64;95636.52;1792057;80;21577;-61
2021/05/22 06:59:36;;;;;;;3.03;2.20;;;;;;;14.40;58.84;95637.98;1792007;80;21573;-62
2021/05/22 07:02:03;;;;;;;3.20;1.80;;;;;;;14.45;60.05;95632.06;1792260;79;21060;-62
2021/05/22 07:04:29;;;;;;;1.60;1.50;;;;;;;14.52;61.57;95638.05;1792190;80;21570;-62
2021/05/22 07:06:55;;;;;;;1.50;1.40;;;;;;;14.60;60.81;95632.52;1792178;80;21044;-62
2021/05/22 07:09:22;;;;;;;1.37;1.27;;;;;;;14.65;59.84;95638.07;1791924;80;21036;-62
2021/05/22 07:11:49;;;;;;;2.10;1.40;;;;;;;14.64;60.14;95637.67;1792050;79;21111;-62
2021/05/22 07:14:15;;;;;;;2.30;1.67;;;;;;;14.68;60.84;95639.28;1792114;80;21079;-61
2021/05/22 07:16:42;;;;;;;2.77;1.50;;;;;;;14.77;61.05;95630.62;1792192;80;21044;-61
2021/05/22 07:19:09;;;;;;;2.43;1.30;;;;;;;14.81;60.75;95622.47;1792094;80;21162;-62
2021/05/22 07:21:35;;;;;;;1.80;1.60;;;;;;;14.93;61.78;95627.82;1792093;79;21059;-62
2021/05/22 07:24:02;;;;;;;2.03;1.47;;;;;;;14.91;61.58;95635.83;1792151;80;21160;-62
2021/05/22 07:26:29;;;;;;;6.50;1.83;;;;;;;14.99;60.17;95628.92;1791999;80;21036;-61
2021/05/22 07:28:56;;;;;;;1.60;1.50;;;;;;;15.09;61.07;95629.47;1791014;80;21091;-62
2021/05/22 07:31:23;;;;;;;2.60;1.30;;;;;;;15.13;60.79;95633.77;1786653;80;21037;-62
2021/05/22 07:33:51;;;;;;;1.77;1.30;;;;;;;15.21;60.62;95637.00;1786585;80;21593;-62
2021/05/22 07:36:18;;;;;;;1.40;1.23;;;;;;;15.20;58.86;95635.28;1786730;80;21056;-62
2021/05/22 07:38:45;;;;;;;1.70;1.50;;;;;;;15.26;59.18;95637.70;1786505;80;21657;-62
2021/05/22 07:41:11;;;;;;;2.40;1.40;;;;;;;15.36;59.24;95638.23;1786621;80;21024;-62
2021/05/22 07:43:38;;;;;;;1.87;1.40;;;;;;;15.44;58.92;95638.82;1786837;80;21072;-62
2021/05/22 07:46:05;;;;;;;2.77;1.50;;;;;;;15.54;58.97;95642.87;1786647;80;21008;-62
2021/05/22 07:48:32;;;;;;;1.30;1.20;;;;;;;15.63;59.17;95641.67;1786626;80;21025;-62
2021/05/22 07:50:59;;;;;;;2.30;1.40;;;;;;;15.77;59.01;95638.51;1786489;80;21048;-63
2021/05/22 07:53:26;;;;;;;4.80;2.23;;;;;;;15.84;54.83;95648.00;1786770;80;21040;-61
2021/05/22 07:55:52;;;;;;;2.57;2.20;;;;;;;15.84;54.36;95644.00;1786706;80;21115;-62
2021/05/22 07:58:19;;;;;;;3.10;1.67;;;;;;;15.88;55.03;95636.80;1786543;80;21044;-62
2021/05/22 08:00:46;;;;;;;1.90;1.60;;;;;;;16.00;55.41;95644.27;1786700;80;21156;-62
2021/05/22 08:03:13;;;;;;;2.40;1.20;;;;;;;16.13;54.79;95633.56;1786847;80;21522;-62
2021/05/22 08:05:39;;;;;;;1.85;1.30;;;;;;;16.25;54.08;95638.84;1786693;80;21032;-62
2021/05/22 08:08:06;;;;;;;1.60;1.10;;;;;;;16.34;54.42;95636.30;1786556;80;21013;-62
2021/05/22 08:10:33;;;;;;;3.35;1.60;;;;;;;16.44;54.43;95629.66;1786399;80;21080;-62
2021/05/22 08:13:00;;;;;;;3.25;1.72;;;;;;;16.58;53.94;95627.74;1786607;80;21044;-62
2021/05/22 08:15:26;;;;;;;5.85;3.20;;;;;;;16.79;53.68;95622.89;1786687;80;21012;-62
2021/05/22 08:17:53;;;;;;;1.95;1.45;;;;;;;16.99;54.81;95626.03;1786643;80;21514;-62
2021/05/22 08:20:20;;;;;;;2.25;1.20;;;;;;;17.25;55.77;95626.69;1786565;80;21060;-62
2021/05/22 08:22:46;;;;;;;1.42;1.15;;;;;;;17.42;54.68;95630.81;1786592;80;21020;-62
2021/05/22 08:25:14;;;;;;;1.20;1.10;;;;;;;17.50;50.76;95627.31;1786687;80;21115;-62
2021/05/22 08:27:41;;;;;;;1.90;1.50;;;;;;;17.46;51.10;95622.19;1786601;80;21060;-62
2021/05/22 08:30:11;;;;;;;1.70;1.32;;;;;;;17.45;52.00;95621.33;1786468;80;21099;-62
2021/05/22 08:32:38;;;;;;;3.17;1.30;;;;;;;17.51;51.33;95628.18;1786633;80;21087;-62
2021/05/22 08:35:07;;;;;;;5.87;1.45;;;;;;;17.61;50.70;95629.97;1786553;80;21112;-62
2021/05/22 08:37:35;;;;;;;2.37;1.27;;;;;;;17.62;51.54;95633.05;1786795;80;21100;-62
2021/05/22 08:40:04;;;;;;;2.33;1.30;;;;;;;17.73;53.79;95632.94;1786723;80;21656;-62
2021/05/22 08:42:32;;;;;;;3.52;1.50;;;;;;;17.84;51.91;95629.83;1786707;80;21056;-62
2021/05/22 08:45:09;;;;;;;2.20;1.55;;;;;;;17.83;49.03;95621.88;1786654;80;21127;-62
2021/05/22 08:47:38;;;;;;;1.72;1.40;;;;;;;17.87;50.63;95627.01;1786632;80;21530;-61
2021/05/22 08:50:12;;;;;;;1.60;1.37;;;;;;;17.95;49.43;95621.30;1786675;80;21021;-62
2021/05/22 08:52:39;;;;;;;2.45;1.40;;;;;;;18.05;49.94;95624.41;1786544;80;21048;-61
2021/05/22 08:55:08;;;;;;;4.08;1.35;;;;;;;18.26;52.64;95619.84;1786435;80;21029;-62
2021/05/22 08:57:35;;;;;;;1.37;1.27;;;;;;;18.44;51.40;95601.56;1786553;80;21077;-61
2021/05/22 09:00:07;;;;;;;2.52;1.40;;;;;;;18.48;50.12;95610.31;1786744;80;21067;-61
2021/05/22 09:02:34;;;;;;;2.30;1.55;;;;;;;18.52;50.70;95606.52;1786463;80;21012;-61
2021/05/22 09:05:18;;;;;;;2.60;1.50;;;;;;;18.68;50.83;95609.32;1786501;80;21064;-62
2021/05/22 09:07:55;;;;;;;3.65;1.75;;;;;;;18.93;51.37;95614.33;1786799;80;21104;-62
2021/05/22 09:10:27;;;;;;;5.72;2.05;;;;;;;19.32;49.85;95612.70;1785810;80;21032;-62
2021/05/22 09:13:01;;;;;;;1.67;1.57;;;;;;;19.56;46.72;95616.38;1786629;80;21498;-62
2021/05/22 09:15:31;;;;;;;1.70;1.60;;;;;;;19.63;47.51;95614.62;1786602;80;21060;-62
2021/05/22 09:18:02;;;;;;;2.47;1.50;;;;;;;19.72;49.34;95609.75;1786514;80;21665;-62
2021/05/22 09:20:32;;;;;;;2.08;1.87;;;;;;;20.04;50.16;95599.47;1786568;80;21017;-62
2021/05/22 09:23:09;;;;;;;3.15;1.30;;;;;;;20.44;45.49;95591.00;1786565;80;21605;-62
2021/05/22 09:25:43;;;;;;;2.60;1.42;;;;;;;20.58;45.52;95600.45;1786635;80;20997;-62
2021/05/22 09:28:11;;;;;;;2.52;1.55;;;;;;;20.81;44.08;95600.93;1785462;80;21013;-62
2021/05/22 09:30:40;;;;;;;1.07;0.95;;;;;;;20.45;34.87;95598.92;1786507;80;21109;-62
2021/05/22 09:33:23;;;;;;;2.35;1.27;;;;;;;20.45;34.87;95598.92;1786526;80;21071;-62
2021/05/22 09:36:03;;;;;;;1.05;0.95;;;;;;;20.16;34.58;95605.07;1786697;80;21036;-62
2021/05/22 09:38:55;;;;;;;1.80;1.00;;;;;;;20.01;34.45;95594.28;1786586;80;21139;-62
2021/05/22 09:41:28;;;;;;;2.50;1.12;;;;;;;20.03;34.52;95603.55;1786164;80;21067;-62
2021/05/22 09:44:18;;;;;;;2.75;1.00;;;;;;;19.82;33.35;95594.42;1786532;80;21632;-62
2021/05/22 09:46:50;;;;;;;1.70;1.40;;;;;;;19.81;34.14;95602.56;1786738;80;21009;-62
2021/05/22 09:49:28;;;;;;;3.85;1.20;;;;;;;19.65;34.34;95595.34;1786790;80;21028;-62
2021/05/22 09:52:03;;;;;;;1.30;1.20;;;;;;;19.56;35.30;95588.28;1786429;80;21012;-61
2021/05/22 09:54:42;;;;;;;1.57;1.22;;;;;;;19.44;33.50;95593.80;1786666;80;21112;-61
2021/05/22 09:57:11;;;;;;;2.40;1.10;;;;;;;19.35;34.82;95591.61;1755968;80;21060;-62
2021/05/22 09:59:38;;;;;;;2.10;1.10;;;;;;;19.39;34.97;95591.85;1786573;80;21036;-61
2021/05/22 10:02:05;;;;;;;2.17;0.93;;;;;;;19.44;33.85;95593.80;1786709;80;21048;-61
2021/05/22 10:04:32;;;;;;;1.45;0.70;;;;;;;19.45;36.08;95592.84;1786583;80;21025;-62
2021/05/22 10:06:58;;;;;;;1.95;0.80;;;;;;;19.49;34.50;95597.58;1786584;80;21581;-62
2021/05/22 10:09:28;;;;;;;3.40;0.90;;;;;;;19.48;35.67;95590.03;1786473;80;21060;-62
2021/05/22 10:12:15;;;;;;;0.78;0.70;;;;;;;19.51;35.75;95587.66;1786511;80;21036;-62
2021/05/22 10:14:43;;;;;;;1.45;0.85;;;;;;;19.47;33.05;95584.27;1786313;80;21020;-62
2021/05/22 10:17:13;;;;;;;2.35;0.90;;;;;;;19.44;34.55;95573.73;1786651;80;21478;-61
2021/05/22 10:19:40;;;;;;;2.02;1.10;;;;;;;19.38;33.39;95571.41;1786556;80;21585;-62
2021/05/22 10:22:09;;;;;;;3.60;1.20;;;;;;;19.37;38.51;95570.52;1786535;80;21341;-62
2021/05/22 10:24:37;;;;;;;1.27;1.10;;;;;;;19.42;37.49;95571.61;1786704;80;21052;-61
2021/05/22 10:27:04;;;;;;;0.80;0.45;;;;;;;19.93;42.55;95566.19;1786253;80;21534;-61
2021/05/22 10:29:36;;;;;;;2.98;0.90;;;;;;;20.28;31.52;95560.17;1786521;80;21027;-62
2021/05/22 10:32:00;;;;;;;1.55;0.50;;;;;;;20.50;34.74;95547.74;1785773;80;21032;-62
2021/05/22 10:34:27;;;;;;;3.15;1.10;;;;;;;20.76;31.91;95535.50;1786599;80;21017;-62
2021/05/22 10:36:59;;;;;;;1.22;0.90;;;;;;;21.03;31.20;95535.66;1786705;80;20997;-62
2021/05/22 10:39:48;;;;;;;2.90;0.90;;;;;;;21.33;29.35;95544.99;1786537;80;21112;-62
2021/05/22 10:42:26;;;;;;;1.70;1.22;;;;;;;21.55;33.89;95536.50;1786467;80;21009;-62
2021/05/22 10:44:54;;;;;;;0.85;0.60;;;;;;;21.85;34.36;95555.67;1786602;80;21521;-62
2021/05/22 10:47:22;;;;;;;5.08;2.58;;;;;;;21.49;29.24;95530.64;1786539;80;21043;-62
2021/05/22 10:50:01;;;;;;;3.47;1.07;;;;;;;21.52;29.61;95529.11;1786604;80;21156;-62
2021/05/22 10:52:35;;;;;;;2.08;1.47;;;;;;;21.49;28.39;95526.13;1786552;80;21543;-62
2021/05/22 10:55:11;;;;;;;3.15;0.53;;;;;;;21.59;33.35;95542.53;1786410;80;21548;-62
2021/05/22 10:57:56;;;;;;;3.35;0.50;;;;;;;21.44;28.12;95526.91;1786577;80;21595;-62
2021/05/22 11:00:25;;;;;;;3.08;0.90;;;;;;;21.55;28.57;95531.62;1786554;80;21518;-63
2021/05/22 11:03:11;;;;;;;3.20;0.70;;;;;;;21.52;30.07;95538.50;1786682;80;21538;-62
2021/05/22 11:05:42;;;;;;;2.12;0.65;;;;;;;21.52;30.61;95538.05;1786695;80;21005;-62
2021/05/22 11:08:20;;;;;;;2.02;0.78;;;;;;;21.56;29.87;95538.70;1786811;80;21044;-62
2021/05/22 11:10:51;;;;;;;2.60;0.68;;;;;;;21.67;30.11;95531.30;1786456;80;21139;-62
2021/05/22 11:13:26;;;;;;;1.42;0.70;;;;;;;21.86;33.69;95526.49;1786307;80;21072;-62
2021/05/22 11:16:00;;;;;;;2.75;1.10;;;;;;;21.75;28.99;95522.30;1786515;80;21020;-62
2021/05/22 11:18:38;;;;;;;1.37;0.70;;;;;;;21.70;31.39;95525.77;1786965;80;21025;-62
2021/05/22 11:21:19;;;;;;;4.72;1.00;;;;;;;21.69;32.14;95532.08;1786718;80;21578;-63
2021/05/22 11:24:02;;;;;;;0.62;0.50;;;;;;;21.69;31.24;95534.27;1786184;80;21815;-62
2021/05/22 11:26:59;;;;;;;3.67;0.70;;;;;;;21.79;29.04;95531.88;1786274;80;21056;-62
2021/05/22 11:29:26;;;;;;;3.30;0.85;;;;;;;21.51;28.64;95549.72;1784928;80;21061;-62
2021/05/22 11:31:53;;;;;;;1.80;0.70;;;;;;;21.39;31.40;95537.06;1746094;81;21048;-62
2021/05/22 11:34:29;;;;;;;2.47;0.80;;;;;;;21.30;29.50;95539.82;1758474;81;21080;-62
2021/05/22 11:37:16;;;;;;;4.65;1.00;;;;;;;21.05;30.46;95527.53;1758441;81;21068;-62
2021/05/22 11:39:46;;;;;;;1.95;1.17;;;;;;;20.82;30.51;95529.78;1758531;81;21076;-62
2021/05/22 11:42:35;;;;;;;1.90;0.82;;;;;;;20.85;33.66;95532.28;1759641;81;21021;-62
2021/05/22 11:45:05;;;;;;;3.83;0.80;;;;;;;21.01;32.77;95538.05;1728621;83;21056;-62
2021/05/22 11:47:35;;;;;;;3.83;1.10;;;;;;;21.15;34.46;95538.09;1728828;83;21139;-62
2021/05/22 11:50:07;;;;;;;1.10;0.98;;;;;;;21.13;34.30;95531.95;1760164;81;21529;-62